Young Endeavour — VMGW — position and weather

sailwx.info

Track history (hours):
 
Tides and Currents Weather Stations Pressure Air Temp Water Temp Dewpoint Dewpoint Depression Visibility Wind Speed Wind Dir Waves Ship Positions

Young Endeavour (Australia)

Ship's website: http://www.youngendeavour.gov.au/

Last reported at 2020-Jul-01 05:28 UTC. Time now 2020-Jul-03 19:45 UTC.
Position S 12°29' E 130°52'.

Length 44 m; beam 7.8 m; draft 4 m.

Type: Other ship. MMSI: 503000136.

Date/timePositionNaut miles runAvg speedWind from/ knotsBaromVisibWave heightAir tempDewpointWater temp
2020-Jul-01 05:28S 12°29' E 130°52'0 0.0
2020-Jul-01 03:55S 12°29' E 130°52'0 0.0
2020-Jul-01 02:28S 12°29' E 130°52'0 0.0
2020-Jun-30 23:58S 12°29' E 130°52'0 0.0
2020-Jun-30 07:10S 12°29' E 130°52'0 0.1
2020-Jun-30 06:27S 12°29' E 130°52'0 0.0
2020-Jun-30 03:30S 12°29' E 130°52'0 0.1
2020-Jun-30 02:27S 12°29' E 130°52'0 0.0
2020-Jun-30 00:30S 12°29' E 130°52'0 0.0
2020-Jun-29 22:57S 12°29' E 130°52'170643.2
2020-Jun-28 07:30S 33°51' E 151°17'0 0.0
2020-Jun-28 05:00S 33°51' E 151°17'10 3.9
2020-Jun-28 02:31S 33°43' E 151°23'10 0.2
2020-Jun-26 02:31S 33°51' E 151°17'1706104096.4
2020-Jun-26 02:30S 12°29' E 130°52'0 0.0
2020-Jun-26 00:27S 12°29' E 130°52'170650757.6
2020-Jun-26 00:25S 33°51' E 151°17'3 0.2
2020-Jun-25 05:01S 33°50' E 151°21'5 4.7
2020-Jun-25 04:01S 33°46' E 151°22'4 4.4
2020-Jun-25 03:00S 33°41' E 151°23'6 0.1
2020-Jun-23 04:39S 33°35' E 151°22'5 8.1
2020-Jun-23 03:58S 33°41' E 151°22'8 8.0
2020-Jun-23 03:00S 33°48' E 151°20'4 2.4
2020-Jun-23 01:26S 33°51' E 151°17'0 0.0
2020-Jun-22 23:29S 33°51' E 151°17'5 0.3
2020-Jun-22 05:30S 33°49' E 151°23'  
Track history (hours):
 
Tides and Currents Weather Stations Pressure Air Temp Water Temp Dewpoint Dewpoint Depression Visibility Wind Speed Wind Dir Waves Ship Positions

Young Endeavour (Australia)

Ship's website: http://www.youngendeavour.gov.au/

Last reported at 2020-Jul-01 05:28 UTC. Time now 2020-Jul-03 19:45 UTC.
Position S 12°29' E 130°52'.

Length 44 m; beam 7.8 m; draft 4 m.

Type: Other ship. MMSI: 503000136.

Date/timePositionNaut miles runAvg speedWind from/ knotsBaromVisibWave heightAir tempDewpointWater temp
2020-Jul-01 05:28S 12°29' E 130°52'0 0.0
2020-Jul-01 03:55S 12°29' E 130°52'0 0.0
2020-Jul-01 02:28S 12°29' E 130°52'0 0.0
2020-Jun-30 23:58S 12°29' E 130°52'0 0.0
2020-Jun-30 07:10S 12°29' E 130°52'0 0.1
2020-Jun-30 06:27S 12°29' E 130°52'0 0.0
2020-Jun-30 03:30S 12°29' E 130°52'0 0.1
2020-Jun-30 02:27S 12°29' E 130°52'0 0.0
2020-Jun-30 00:30S 12°29' E 130°52'0 0.0
2020-Jun-29 22:57S 12°29' E 130°52'170643.2
2020-Jun-28 07:30S 33°51' E 151°17'0 0.0
2020-Jun-28 05:00S 33°51' E 151°17'10 3.9
2020-Jun-28 02:31S 33°43' E 151°23'10 0.2
2020-Jun-26 02:31S 33°51' E 151°17'1706104096.4
2020-Jun-26 02:30S 12°29' E 130°52'0 0.0
2020-Jun-26 00:27S 12°29' E 130°52'170650757.6
2020-Jun-26 00:25S 33°51' E 151°17'3 0.2
2020-Jun-25 05:01S 33°50' E 151°21'5 4.7
2020-Jun-25 04:01S 33°46' E 151°22'4 4.4
2020-Jun-25 03:00S 33°41' E 151°23'6 0.1
2020-Jun-23 04:39S 33°35' E 151°22'5 8.1
2020-Jun-23 03:58S 33°41' E 151°22'8 8.0
2020-Jun-23 03:00S 33°48' E 151°20'4 2.4
2020-Jun-23 01:26S 33°51' E 151°17'0 0.0
2020-Jun-22 23:29S 33°51' E 151°17'5 0.3
2020-Jun-22 05:30S 33°49' E 151°23'  

Dump ship's entire track history